createdAt,value
2019-01-12T00:01:37.496Z,24.77
2019-01-12T00:04:05.456Z,24.43
2019-01-12T00:06:33.321Z,26.17
2019-01-12T00:09:01.290Z,23.27
2019-01-12T00:11:29.004Z,25.27
2019-01-12T00:13:56.928Z,27.90
2019-01-12T00:16:28.668Z,31.17
2019-01-12T00:18:56.308Z,24.02
2019-01-12T00:21:23.902Z,26.00
2019-01-12T00:23:52.080Z,31.90
2019-01-12T00:26:20.255Z,25.80
2019-01-12T00:28:48.226Z,24.37
2019-01-12T00:31:16.259Z,24.80
2019-01-12T00:33:45.941Z,21.97
2019-01-12T00:36:13.827Z,23.45
2019-01-12T00:38:45.476Z,28.60
2019-01-12T00:41:13.796Z,27.95
2019-01-12T00:43:41.567Z,21.55
2019-01-12T00:46:09.858Z,25.70
2019-01-12T00:48:38.614Z,23.20
2019-01-12T00:51:06.367Z,27.07
2019-01-12T00:53:35.966Z,25.92
2019-01-12T00:56:03.903Z,25.40
2019-01-12T00:58:32.878Z,26.45
2019-01-12T01:01:00.710Z,26.85
2019-01-12T01:03:30.278Z,29.05
2019-01-12T01:05:58.077Z,27.37
2019-01-12T01:08:26.620Z,28.57
2019-01-12T01:10:54.564Z,23.57
2019-01-12T01:13:22.686Z,22.22
2019-01-12T01:15:50.288Z,24.85
2019-01-12T01:18:22.091Z,26.70
2019-01-12T01:20:50.082Z,26.95
2019-01-12T01:23:18.053Z,22.55
2019-01-12T01:25:48.217Z,26.23
2019-01-12T01:28:16.861Z,21.65
2019-01-12T01:30:46.604Z,21.57
2019-01-12T01:33:14.439Z,25.17
2019-01-12T01:35:48.509Z,25.82
2019-01-12T01:38:16.311Z,20.90
2019-01-12T01:40:48.120Z,23.67
2019-01-12T01:43:16.918Z,21.20
2019-01-12T01:45:45.722Z,22.93
2019-01-12T01:48:13.476Z,25.50
2019-01-12T01:50:41.355Z,24.12
2019-01-12T01:53:09.394Z,23.35
2019-01-12T01:55:37.124Z,29.48
2019-01-12T01:58:04.699Z,23.80
2019-01-12T02:00:35.199Z,27.00
2019-01-12T02:03:03.212Z,22.82
2019-01-12T02:05:30.955Z,37.23
2019-01-12T02:08:00.580Z,21.07
2019-01-12T02:10:30.478Z,25.12
2019-01-12T02:13:04.108Z,23.62
2019-01-12T02:15:33.960Z,27.48
2019-01-12T02:18:01.819Z,22.37
2019-01-12T02:20:35.779Z,25.12
2019-01-12T02:23:03.753Z,29.32
2019-01-12T02:25:31.510Z,28.45
2019-01-12T02:27:59.818Z,19.48
2019-01-12T02:30:28.541Z,22.75
2019-01-12T02:32:56.404Z,27.13
2019-01-12T02:35:24.054Z,22.10
2019-01-12T02:37:51.831Z,21.02
2019-01-12T02:40:19.634Z,21.73
2019-01-12T02:42:47.556Z,20.88
2019-01-12T02:45:15.559Z,20.95
2019-01-12T02:47:43.669Z,25.48
2019-01-12T02:50:11.952Z,23.67
2019-01-12T02:52:40.959Z,19.32
2019-01-12T02:55:09.378Z,21.68
2019-01-12T02:57:37.146Z,23.80
2019-01-12T03:00:07.940Z,22.67
2019-01-12T03:02:37.826Z,22.27
2019-01-12T03:05:05.922Z,23.15
2019-01-12T03:07:34.758Z,19.85
2019-01-12T03:10:05.079Z,25.48
2019-01-12T03:12:33.110Z,23.25
2019-01-12T03:15:00.791Z,15.85
2019-01-12T03:17:28.352Z,24.43
2019-01-12T03:19:56.100Z,16.67
2019-01-12T03:22:24.103Z,23.30
2019-01-12T03:24:52.455Z,16.75
2019-01-12T03:27:20.120Z,18.12
2019-01-12T03:29:48.315Z,20.92
2019-01-12T03:32:16.719Z,16.05
2019-01-12T03:34:44.763Z,23.90
2019-01-12T03:37:12.400Z,19.52
2019-01-12T03:39:41.191Z,24.07
2019-01-12T03:42:08.946Z,19.70
2019-01-12T03:44:36.822Z,18.77
2019-01-12T03:47:04.661Z,16.73
2019-01-12T03:49:36.291Z,17.17
2019-01-12T03:52:04.088Z,17.98
2019-01-12T03:54:32.785Z,18.57
2019-01-12T03:57:00.650Z,17.60
2019-01-12T03:59:28.257Z,20.23
2019-01-12T04:01:56.022Z,15.53
2019-01-12T04:04:24.673Z,24.00
2019-01-12T04:06:54.490Z,21.02
2019-01-12T04:09:22.484Z,24.40
2019-01-12T04:11:50.288Z,17.70
2019-01-12T04:14:18.194Z,18.07
2019-01-12T04:16:46.034Z,21.12
2019-01-12T04:19:13.968Z,22.50
2019-01-12T04:21:43.357Z,19.07
2019-01-12T04:24:11.739Z,16.65
2019-01-12T04:26:40.380Z,16.95
2019-01-12T04:29:09.668Z,20.23
2019-01-12T04:31:38.614Z,22.07
2019-01-12T04:34:06.773Z,18.70
2019-01-12T04:36:35.110Z,22.77
2019-01-12T04:39:07.098Z,17.60
2019-01-12T04:41:35.837Z,19.05
2019-01-12T04:44:03.830Z,17.77
2019-01-12T04:46:32.706Z,20.77
2019-01-12T04:49:00.649Z,19.85
2019-01-12T04:51:28.422Z,16.55
2019-01-12T04:53:56.307Z,15.65
2019-01-12T04:56:24.161Z,17.42
2019-01-12T04:58:52.945Z,21.87
2019-01-12T05:01:20.669Z,19.27
2019-01-12T05:03:48.566Z,16.02
2019-01-12T05:06:16.501Z,22.30
2019-01-12T05:08:48.956Z,19.37
2019-01-12T05:11:16.751Z,17.45
2019-01-12T05:13:44.746Z,18.00
2019-01-12T05:16:12.445Z,19.30
2019-01-12T05:18:40.773Z,16.67
2019-01-12T05:21:09.427Z,21.17
2019-01-12T05:23:37.020Z,19.30
2019-01-12T05:26:05.488Z,19.20
2019-01-12T05:28:35.167Z,15.70
2019-01-12T05:31:04.096Z,17.92
2019-01-12T05:33:32.210Z,15.32
2019-01-12T05:35:59.844Z,21.50
2019-01-12T05:38:29.917Z,20.70
2019-01-12T05:40:58.911Z,17.92
2019-01-12T05:43:27.681Z,17.02
2019-01-12T05:45:55.469Z,17.27
2019-01-12T05:48:24.635Z,17.25
2019-01-12T05:50:52.379Z,19.60
2019-01-12T05:53:24.007Z,15.20
2019-01-12T05:55:57.050Z,19.85
2019-01-12T05:58:23.503Z,19.82
2019-01-12T06:00:51.084Z,15.85
2019-01-12T06:03:19.948Z,17.75
2019-01-12T06:05:49.809Z,19.00
2019-01-12T06:08:17.712Z,15.65
2019-01-12T06:10:45.556Z,17.60
2019-01-12T06:13:14.294Z,23.07
2019-01-12T06:15:44.438Z,20.02
2019-01-12T06:18:12.250Z,14.95
2019-01-12T06:20:39.919Z,16.85
2019-01-12T06:23:07.905Z,16.45
2019-01-12T06:25:35.710Z,12.37
2019-01-12T06:28:03.551Z,17.90
2019-01-12T06:30:35.063Z,18.55
2019-01-12T06:33:05.243Z,13.88
2019-01-12T06:35:33.194Z,15.45
2019-01-12T06:38:01.570Z,18.20
2019-01-12T06:40:31.597Z,17.15
2019-01-12T06:42:59.242Z,15.28
2019-01-12T06:45:28.050Z,18.15
2019-01-12T06:47:55.841Z,17.67
2019-01-12T06:50:23.813Z,21.40
2019-01-12T06:52:51.665Z,16.67
2019-01-12T06:55:19.452Z,17.62
2019-01-12T06:57:47.394Z,16.57
2019-01-12T07:00:22.251Z,14.03
2019-01-12T07:02:51.788Z,17.17
2019-01-12T07:05:19.311Z,16.17
2019-01-12T07:07:46.978Z,17.35
2019-01-12T07:10:15.126Z,15.25
2019-01-12T07:12:50.069Z,19.57
2019-01-12T07:15:18.002Z,22.77
2019-01-12T07:17:46.975Z,13.72
2019-01-12T07:20:16.872Z,15.60
2019-01-12T07:22:46.936Z,21.23
2019-01-12T07:25:14.813Z,19.73
2019-01-12T07:27:45.372Z,20.23
2019-01-12T07:30:20.250Z,16.87
2019-01-12T07:32:48.406Z,32.13
2019-01-12T07:35:16.077Z,21.68
2019-01-12T07:37:45.924Z,19.87
2019-01-12T07:40:13.853Z,20.95
2019-01-12T07:42:41.762Z,18.37
2019-01-12T07:45:09.967Z,23.18
2019-01-12T07:47:37.625Z,18.85
2019-01-12T07:50:06.803Z,16.62
2019-01-12T07:52:36.467Z,18.90
2019-01-12T07:55:05.460Z,20.57
2019-01-12T07:57:34.586Z,21.62
2019-01-12T08:00:04.938Z,14.20
2019-01-12T08:02:36.015Z,18.00
2019-01-12T08:05:04.877Z,14.83
2019-01-12T08:07:44.105Z,14.90
2019-01-12T08:10:23.197Z,14.78
2019-01-12T08:12:51.087Z,14.23
2019-01-12T08:15:21.674Z,10.80
2019-01-12T08:17:49.600Z,15.68
2019-01-12T08:20:17.788Z,15.45
2019-01-12T08:22:45.435Z,14.23
2019-01-12T08:25:13.451Z,14.05
2019-01-12T08:27:42.318Z,10.08
2019-01-12T08:30:15.105Z,9.38
2019-01-12T08:32:44.287Z,12.13
2019-01-12T08:35:12.790Z,11.70
2019-01-12T08:37:41.474Z,17.20
2019-01-12T08:40:12.400Z,16.77
2019-01-12T08:42:44.897Z,15.55
2019-01-12T08:45:13.131Z,17.15
2019-01-12T08:47:40.663Z,15.93
2019-01-12T08:50:12.797Z,15.03
2019-01-12T08:52:40.630Z,14.30
2019-01-12T08:55:09.606Z,18.20
2019-01-12T08:57:37.465Z,17.30
2019-01-12T09:00:08.261Z,13.65
2019-01-12T09:02:36.883Z,8.98
2019-01-12T09:05:05.219Z,11.75
2019-01-12T09:07:34.950Z,13.25
2019-01-12T09:10:03.862Z,13.68
2019-01-12T09:12:35.746Z,10.82
2019-01-12T09:15:07.286Z,12.05
2019-01-12T09:17:36.531Z,12.68
2019-01-12T09:20:05.412Z,12.07
2019-01-12T09:22:35.803Z,13.60
2019-01-12T09:25:04.556Z,12.93
2019-01-12T09:27:32.475Z,12.15
2019-01-12T09:30:00.337Z,9.95
2019-01-12T09:32:31.623Z,11.12
2019-01-12T09:34:59.242Z,10.38
2019-01-12T09:37:27.885Z,15.95
2019-01-12T09:39:55.855Z,12.30
2019-01-12T09:42:24.486Z,13.58
2019-01-12T09:44:52.063Z,11.97
2019-01-12T09:47:19.744Z,9.88
2019-01-12T09:49:47.734Z,12.63
2019-01-12T09:52:15.499Z,12.13
2019-01-12T09:54:43.470Z,11.75
2019-01-12T09:57:12.458Z,12.80
2019-01-12T09:59:40.440Z,14.63
2019-01-12T10:02:08.218Z,13.88
2019-01-12T10:04:35.751Z,14.33
2019-01-12T10:07:03.580Z,13.40
2019-01-12T10:09:31.534Z,17.05
2019-01-12T10:11:59.253Z,18.00
2019-01-12T10:14:30.882Z,11.10
2019-01-12T10:16:58.730Z,10.35
2019-01-12T10:19:26.417Z,9.15
2019-01-12T10:21:54.433Z,10.63
2019-01-12T10:24:24.404Z,8.88
2019-01-12T10:26:58.346Z,15.95
2019-01-12T10:29:22.095Z,9.63
2019-01-12T10:31:50.302Z,8.65
2019-01-12T10:34:18.319Z,12.70
2019-01-12T10:36:48.230Z,9.85
2019-01-12T10:39:17.999Z,11.33
2019-01-12T10:41:46.356Z,10.88
2019-01-12T10:44:14.417Z,13.58
2019-01-12T10:46:44.136Z,11.30
2019-01-12T10:49:12.861Z,11.00
2019-01-12T10:51:41.539Z,10.10
2019-01-12T10:54:09.466Z,10.98
2019-01-12T10:56:37.096Z,11.93
2019-01-12T10:59:04.743Z,10.15
2019-01-12T11:01:32.616Z,12.70
2019-01-12T11:04:00.504Z,9.90
2019-01-12T11:06:32.063Z,10.93
2019-01-12T11:09:04.978Z,13.53
2019-01-12T11:11:35.784Z,14.00
2019-01-12T11:14:04.607Z,12.47
2019-01-12T11:16:32.614Z,12.82
2019-01-12T11:19:00.372Z,13.45
2019-01-12T11:21:30.433Z,12.70
2019-01-12T11:24:00.347Z,11.65
2019-01-12T11:26:29.689Z,12.30
2019-01-12T11:28:57.518Z,16.45
2019-01-12T11:31:25.408Z,12.60
2019-01-12T11:33:52.966Z,12.60
2019-01-12T11:36:20.459Z,13.53
2019-01-12T11:38:49.371Z,10.43
2019-01-12T11:41:17.286Z,11.15
2019-01-12T11:43:47.272Z,12.78
2019-01-12T11:46:14.983Z,16.82
2019-01-12T11:48:45.023Z,16.62
2019-01-12T11:51:14.067Z,9.10
2019-01-12T11:53:42.128Z,10.60
2019-01-12T11:56:09.842Z,10.75
2019-01-12T11:58:37.751Z,17.67
2019-01-12T12:01:05.522Z,12.18
2019-01-12T12:03:33.518Z,9.35
2019-01-12T12:06:01.406Z,10.25
2019-01-12T12:08:29.546Z,10.30
2019-01-12T12:10:57.045Z,9.80
2019-01-12T12:13:24.847Z,15.00
2019-01-12T12:15:52.771Z,8.83
2019-01-12T12:18:20.601Z,9.18
2019-01-12T12:20:48.140Z,8.50
2019-01-12T12:23:16.171Z,7.33
2019-01-12T12:25:43.871Z,11.30
2019-01-12T12:28:11.457Z,9.65
2019-01-12T12:30:39.045Z,8.80
2019-01-12T12:33:07.116Z,10.13
2019-01-12T12:35:37.887Z,9.03
2019-01-12T12:38:06.300Z,10.50
2019-01-12T12:40:37.076Z,11.50
2019-01-12T12:43:07.401Z,12.43
2019-01-12T12:45:35.989Z,15.95
2019-01-12T12:48:04.687Z,8.23
2019-01-12T12:50:32.767Z,10.85
2019-01-12T12:53:00.629Z,9.30
2019-01-12T12:55:28.801Z,10.25
2019-01-12T12:57:57.547Z,27.70
2019-01-12T13:00:28.221Z,10.98
2019-01-12T13:02:57.227Z,8.48
2019-01-12T13:05:25.372Z,11.05
2019-01-12T13:07:53.630Z,7.55
2019-01-12T13:10:25.489Z,9.83
2019-01-12T13:12:53.335Z,9.13
2019-01-12T13:15:27.060Z,7.72
2019-01-12T13:17:55.334Z,7.03
2019-01-12T13:20:24.402Z,9.78
2019-01-12T13:22:52.231Z,9.08
2019-01-12T13:25:19.963Z,9.35
2019-01-12T13:27:48.574Z,9.75
2019-01-12T13:30:19.833Z,9.50
2019-01-12T13:32:47.954Z,8.03
2019-01-12T13:35:17.724Z,10.18
2019-01-12T13:37:45.669Z,8.53
2019-01-12T13:40:15.444Z,9.58
2019-01-12T13:42:43.344Z,9.63
2019-01-12T13:45:14.062Z,11.83
2019-01-12T13:47:41.991Z,14.65
2019-01-12T13:50:12.426Z,13.68
2019-01-12T13:52:40.140Z,12.37
2019-01-12T13:55:10.592Z,15.00
2019-01-12T13:57:38.465Z,12.58
2019-01-12T14:00:20.960Z,13.00
2019-01-12T14:02:48.559Z,11.65
2019-01-12T14:05:18.819Z,10.70
2019-01-12T14:07:46.341Z,17.40
2019-01-12T14:10:16.529Z,17.32
2019-01-12T14:12:45.212Z,16.93
2019-01-12T14:15:13.584Z,15.45
2019-01-12T14:17:43.745Z,14.07
2019-01-12T14:20:15.851Z,13.20
2019-01-12T14:22:43.670Z,12.00
2019-01-12T14:25:11.283Z,14.95
2019-01-12T14:27:39.090Z,14.33
2019-01-12T14:30:15.323Z,16.27
2019-01-12T14:32:39.558Z,22.22
2019-01-12T14:35:08.897Z,19.40
2019-01-12T14:37:36.676Z,18.07
2019-01-12T14:40:06.272Z,13.72
2019-01-12T14:42:33.830Z,15.63
2019-01-12T14:45:03.784Z,15.60
2019-01-12T14:47:31.378Z,15.13
2019-01-12T14:50:01.149Z,16.02
2019-01-12T14:52:31.540Z,14.90
2019-01-12T14:54:59.297Z,12.80
2019-01-12T14:57:27.318Z,9.38
2019-01-12T14:59:55.481Z,16.32
2019-01-12T15:02:23.221Z,15.43
2019-01-12T15:04:51.220Z,21.05
2019-01-12T15:07:22.444Z,22.65
2019-01-12T15:09:51.467Z,18.98
2019-01-12T15:12:19.280Z,17.50
2019-01-12T15:14:46.933Z,21.52
2019-01-12T15:17:14.730Z,19.05
2019-01-12T15:19:43.012Z,16.70
2019-01-12T15:22:10.789Z,15.85
2019-01-12T15:24:39.246Z,22.37
2019-01-12T15:27:07.161Z,15.08
2019-01-12T15:29:34.914Z,24.65
2019-01-12T15:32:02.632Z,16.32
2019-01-12T15:34:30.591Z,14.83
2019-01-12T15:36:58.290Z,15.45
2019-01-12T15:39:26.288Z,16.40
2019-01-12T15:41:54.064Z,20.30
2019-01-12T15:44:22.890Z,18.00
2019-01-12T15:46:50.640Z,18.95
2019-01-12T15:49:18.613Z,19.25
2019-01-12T15:51:46.374Z,20.17
2019-01-12T15:54:14.220Z,14.45
2019-01-12T15:56:41.864Z,15.70
2019-01-12T15:59:10.814Z,16.45
2019-01-12T16:01:38.696Z,17.50
2019-01-12T16:04:07.491Z,19.07
2019-01-12T16:06:38.665Z,14.33
2019-01-12T16:09:07.508Z,14.58
2019-01-12T16:11:35.112Z,17.52
2019-01-12T16:14:03.043Z,15.13
2019-01-12T16:16:34.461Z,13.40
2019-01-12T16:19:02.445Z,15.08
2019-01-12T16:21:30.674Z,16.97
2019-01-12T16:23:58.241Z,15.53
2019-01-12T16:26:25.963Z,13.93
2019-01-12T16:28:53.746Z,15.15
2019-01-12T16:31:25.920Z,19.62
2019-01-12T16:33:53.490Z,20.02
2019-01-12T16:36:22.351Z,18.80
2019-01-12T16:38:50.969Z,11.33
2019-01-12T16:41:19.853Z,14.35
2019-01-12T16:43:47.581Z,15.28
2019-01-12T16:46:15.234Z,13.50
2019-01-12T16:48:43.171Z,13.58
2019-01-12T16:51:12.852Z,17.25
2019-01-12T16:53:40.718Z,16.75
2019-01-12T16:56:08.769Z,18.27
2019-01-12T16:58:36.558Z,18.62
2019-01-12T17:01:04.377Z,19.40
2019-01-12T17:03:32.171Z,18.32
2019-01-12T17:06:00.099Z,19.80
2019-01-12T17:08:27.878Z,18.48
2019-01-12T17:10:55.497Z,19.75
2019-01-12T17:13:23.242Z,19.12
2019-01-12T17:15:51.522Z,24.87
2019-01-12T17:18:19.699Z,19.05
2019-01-12T17:20:48.870Z,31.57
2019-01-12T17:23:16.649Z,28.35
2019-01-12T17:25:45.437Z,26.23
2019-01-12T17:28:13.235Z,22.58
2019-01-12T17:30:41.957Z,26.48
2019-01-12T17:33:15.589Z,24.30
2019-01-12T17:35:43.220Z,29.57
2019-01-12T17:38:10.817Z,23.32
2019-01-12T17:40:39.678Z,19.85
2019-01-12T17:43:08.466Z,16.50
2019-01-12T17:45:39.033Z,23.02
2019-01-12T17:48:08.584Z,25.20
2019-01-12T17:50:36.321Z,27.35
2019-01-12T17:53:04.428Z,29.45
2019-01-12T17:55:32.026Z,22.52
2019-01-12T17:58:01.651Z,28.62
2019-01-12T18:00:49.006Z,20.55
2019-01-12T18:03:16.991Z,29.05
2019-01-12T18:05:46.218Z,23.05
2019-01-12T18:08:14.725Z,25.10
2019-01-12T18:10:42.747Z,21.15
2019-01-12T18:13:11.387Z,23.05
2019-01-12T18:15:39.180Z,19.50
2019-01-12T18:18:12.714Z,19.27
2019-01-12T18:20:40.441Z,17.77
2019-01-12T18:23:08.222Z,22.07
2019-01-12T18:25:36.001Z,16.48
2019-01-12T18:28:03.816Z,19.15
2019-01-12T18:30:31.854Z,14.55
2019-01-12T18:32:59.601Z,16.42
2019-01-12T18:35:27.382Z,15.93
2019-01-12T18:37:54.925Z,15.48
2019-01-12T18:40:22.449Z,19.23
2019-01-12T18:42:51.147Z,16.15
2019-01-12T18:45:19.164Z,15.55
2019-01-12T18:47:46.863Z,19.87
2019-01-12T18:50:19.877Z,18.12
2019-01-12T18:52:48.091Z,18.55
2019-01-12T18:55:16.965Z,13.55
2019-01-12T18:57:45.618Z,15.63
2019-01-12T19:00:19.412Z,17.07
2019-01-12T19:02:47.124Z,17.85
2019-01-12T19:05:17.319Z,20.25
2019-01-12T19:07:45.010Z,17.00
2019-01-12T19:10:14.163Z,16.12
2019-01-12T19:12:42.057Z,13.95
2019-01-12T19:15:16.479Z,12.00
2019-01-12T19:17:44.198Z,23.52
2019-01-12T19:20:14.875Z,15.98
2019-01-12T19:22:42.876Z,12.73
2019-01-12T19:25:10.790Z,16.55
2019-01-12T19:27:38.495Z,12.40
2019-01-12T19:30:09.802Z,13.75
2019-01-12T19:32:37.459Z,14.15
2019-01-12T19:35:05.619Z,13.05
2019-01-12T19:37:33.607Z,16.40
2019-01-12T19:40:01.733Z,16.70
2019-01-12T19:42:29.781Z,13.38
2019-01-12T19:44:57.690Z,16.57
2019-01-12T19:47:26.700Z,18.23
2019-01-12T19:49:55.358Z,12.40
2019-01-12T19:52:23.357Z,14.93
2019-01-12T19:54:51.966Z,12.75
2019-01-12T19:57:19.592Z,10.80
2019-01-12T19:59:47.495Z,13.28
2019-01-12T20:02:15.165Z,15.55
2019-01-12T20:04:43.033Z,9.53
2019-01-12T20:07:14.172Z,12.07
2019-01-12T20:09:41.943Z,8.95
2019-01-12T20:12:10.820Z,8.53
2019-01-12T20:14:38.488Z,11.83
2019-01-12T20:17:06.460Z,9.48
2019-01-12T20:19:34.182Z,12.53
2019-01-12T20:22:02.191Z,11.30
2019-01-12T20:24:29.972Z,10.15
2019-01-12T20:26:57.945Z,12.85
2019-01-12T20:29:25.740Z,13.98
2019-01-12T20:32:17.281Z,10.70
2019-01-12T20:35:09.621Z,10.23
2019-01-12T20:38:07.242Z,13.13
2019-01-12T20:40:54.453Z,12.63
2019-01-12T20:44:13.408Z,16.25
2019-01-12T20:47:07.798Z,19.17
2019-01-12T20:50:12.771Z,11.85
2019-01-12T20:53:01.502Z,12.90
2019-01-12T20:55:53.615Z,15.40
2019-01-12T20:58:47.096Z,16.45
2019-01-12T21:01:42.417Z,14.65
2019-01-12T21:04:57.259Z,12.23
2019-01-12T21:07:55.129Z,16.57
2019-01-12T21:10:50.090Z,14.63
2019-01-12T21:14:06.129Z,15.30
2019-01-12T21:16:43.894Z,20.08
2019-01-12T21:19:11.728Z,17.57
2019-01-12T21:21:39.698Z,16.60
2019-01-12T21:24:07.442Z,11.22
2019-01-12T21:26:35.931Z,12.50
2019-01-12T21:29:03.773Z,13.25
2019-01-12T21:31:33.782Z,11.93
2019-01-12T21:34:01.766Z,15.28
2019-01-12T21:36:30.895Z,11.97
2019-01-12T21:38:58.705Z,14.35
2019-01-12T21:41:26.678Z,14.53
2019-01-12T21:43:54.522Z,13.10
2019-01-12T21:46:22.523Z,16.37
2019-01-12T21:48:51.621Z,12.33
2019-01-12T21:51:23.091Z,13.00
2019-01-12T21:53:50.890Z,11.50
2019-01-12T21:56:20.890Z,10.28
2019-01-12T21:58:49.865Z,14.55
2019-01-12T22:01:22.487Z,10.85
2019-01-12T22:03:51.174Z,14.55
2019-01-12T22:06:18.692Z,13.83
2019-01-12T22:08:46.664Z,11.48
2019-01-12T22:11:14.656Z,12.90
2019-01-12T22:13:43.590Z,12.15
2019-01-12T22:16:11.172Z,13.53
2019-01-12T22:18:38.993Z,17.27
2019-01-12T22:21:06.884Z,17.62
2019-01-12T22:23:34.722Z,18.65
2019-01-12T22:26:02.732Z,14.65
2019-01-12T22:28:31.812Z,13.45
2019-01-12T22:30:59.486Z,14.85
2019-01-12T22:33:27.466Z,12.10
2019-01-12T22:35:55.264Z,13.40
2019-01-12T22:38:22.944Z,9.98
2019-01-12T22:40:50.632Z,12.35
2019-01-12T22:43:18.342Z,11.45
2019-01-12T22:45:46.403Z,13.55
2019-01-12T22:48:14.161Z,10.48
2019-01-12T22:50:41.727Z,13.48
2019-01-12T22:53:09.594Z,8.68
2019-01-12T22:55:37.401Z,11.08
2019-01-12T22:58:06.407Z,10.35
2019-01-12T23:01:06.178Z,12.53
2019-01-12T23:03:36.239Z,11.95
2019-01-12T23:06:04.127Z,15.58
2019-01-12T23:08:31.884Z,17.77
2019-01-12T23:10:59.909Z,18.30
2019-01-12T23:13:27.520Z,16.50
2019-01-12T23:15:55.206Z,15.00
2019-01-12T23:18:22.954Z,18.92
2019-01-12T23:20:50.951Z,18.37
2019-01-12T23:23:23.136Z,15.30
2019-01-12T23:25:51.028Z,20.80
2019-01-12T23:28:19.737Z,19.23
2019-01-12T23:30:47.618Z,21.50
2019-01-12T23:33:17.195Z,17.30
2019-01-12T23:35:45.101Z,18.25
2019-01-12T23:38:12.835Z,19.35
2019-01-12T23:40:40.747Z,18.27
2019-01-12T23:43:08.582Z,19.95
2019-01-12T23:45:36.601Z,18.65
2019-01-12T23:48:04.094Z,20.25
2019-01-12T23:50:34.020Z,20.60
2019-01-12T23:53:04.593Z,17.12
2019-01-12T23:55:34.531Z,20.23
2019-01-12T23:58:02.539Z,20.60
